.
WxDataArchive / Data Records for 2014-08-14
2014-08-13 August 2014 2014-08-15

Data Records for Thursday, 14 August 2014

Time	Temp	Chill	HIndex	Humid	Dewpt	 Wind 	HiWind	WindDir	Rain 	Barom
-----	----	-----	------	-----	-----	------	------	-------	-----	-----
00:00	66.3	66.3	66.3	76	58.5	0	0	---	0.00	29.973 
00:05	66.0	66.0	66.0	76	58.2	0	0	---	0.00	29.973 
00:10	65.6	65.6	65.6	77	58.2	0	0	---	0.00	29.973 
00:15	65.3	65.3	65.3	78	58.3	0	0	---	0.00	29.971 
00:20	65.0	65.0	65.0	79	58.3	0	0	---	0.00	29.971 
00:25	64.7	64.7	64.7	80	58.4	0	0	---	0.00	29.971 
00:30	64.3	64.3	64.3	81	58.3	0	0	---	0.00	29.974 
00:35	64.0	64.0	64.0	81	58.0	0	0	---	0.00	29.974 
00:40	63.9	63.9	63.9	81	57.9	0	0	---	0.00	29.974 
00:45	63.7	63.7	63.7	82	58.1	0	0	---	0.00	29.976 
00:50	63.5	63.5	63.5	82	57.9	0	0	---	0.00	29.976 
00:55	63.2	63.2	63.2	83	57.9	0	0	---	0.00	29.976 
01:00	62.9	62.9	62.9	83	57.7	0	0	---	0.00	29.976 
01:05	62.7	62.7	62.7	84	57.8	0	0	---	0.00	29.976 
01:10	62.6	62.6	62.6	84	57.7	0	0	---	0.00	29.976 
01:15	62.4	62.4	62.4	84	57.5	0	0	---	0.00	29.979 
01:20	62.3	62.3	62.3	85	57.7	0	0	---	0.00	29.979 
01:25	62.1	62.1	62.1	85	57.5	0	0	---	0.00	29.979 
01:30	62.1	62.1	62.1	85	57.5	0	0	---	0.00	29.978 
01:35	62.0	62.0	62.0	85	57.4	0	0	---	0.00	29.978 
01:40	61.6	61.6	61.6	85	57.0	0	0	---	0.00	29.978 
01:45	61.5	61.5	61.5	85	56.9	0	0	---	0.00	29.982 
01:50	61.2	61.2	61.2	86	57.0	0	0	---	0.00	29.982 
01:55	61.0	61.0	61.0	86	56.8	0	0	---	0.00	29.982 
02:00	60.9	60.9	60.9	86	56.7	0	0	---	0.00	29.984 
02:05	60.7	60.7	60.7	87	56.8	0	0	---	0.00	29.984 
02:10	60.7	60.7	60.7	87	56.8	0	0	---	0.00	29.984 
02:15	60.5	60.5	60.5	87	56.6	0	0	---	0.00	29.981 
02:20	60.5	60.5	60.5	87	56.6	0	0	---	0.00	29.981 
02:25	60.4	60.4	60.4	87	56.5	0	0	---	0.00	29.981 
02:30	60.4	60.4	60.4	87	56.5	0	0	---	0.00	29.981 
02:35	60.2	60.2	60.2	87	56.3	0	0	---	0.00	29.981 
02:40	60.2	60.2	60.2	87	56.3	0	0	---	0.00	29.981 
02:45	60.2	60.2	60.2	87	56.3	0	0	---	0.00	29.985 
02:50	60.1	60.1	60.1	86	55.9	0	0	---	0.00	29.985 
02:55	60.1	60.1	60.1	86	55.9	0	0	---	0.00	29.985 
03:00	60.1	60.1	60.1	86	55.9	0	0	---	0.00	29.982 
03:05	59.9	59.9	59.9	85	55.4	0	0	---	0.00	29.982 
03:10	59.8	59.8	59.8	85	55.3	0	0	---	0.00	29.982 
03:15	59.8	59.8	59.8	85	55.3	0	0	---	0.00	29.983 
03:20	59.6	59.6	59.6	85	55.1	0	0	---	0.00	29.983 
03:25	59.5	59.5	59.5	85	55.0	0	0	---	0.00	29.983 
03:30	59.3	59.3	59.3	85	54.8	0	0	---	0.00	29.981 
03:35	59.0	59.0	59.0	85	54.5	0	0	---	0.00	29.981 
03:40	58.7	58.7	58.7	86	54.5	0	0	---	0.00	29.981 
03:45	58.6	58.6	58.6	86	54.4	0	0	---	0.00	29.977 
03:50	58.3	58.3	58.3	86	54.1	0	0	---	0.00	29.977 
03:55	58.1	58.1	58.1	86	53.9	0	0	---	0.00	29.977 
04:00	58.1	58.1	58.1	87	54.2	0	0	---	0.00	29.978 
04:05	58.1	58.1	58.1	87	54.2	0	1	270	0.00	29.978 
04:10	58.4	58.4	58.4	86	54.2	0	0	---	0.00	29.978 
04:15	58.6	58.6	58.6	86	54.4	0	0	---	0.00	29.976 
04:20	58.7	58.7	58.7	85	54.2	0	1	270	0.00	29.976 
04:25	58.9	58.9	58.9	84	54.1	0	0	---	0.00	29.976 
04:30	59.0	59.0	59.0	83	53.8	0	1	270	0.00	29.979 
04:35	59.0	59.0	59.0	82	53.5	0	0	---	0.00	29.979 
04:40	59.2	59.2	59.2	82	53.7	0	0	---	0.00	29.979 
04:45	59.2	59.2	59.2	81	53.4	0	0	---	0.00	29.977 
04:50	59.2	59.2	59.2	81	53.4	0	1	270	0.00	29.977 
04:55	59.3	59.3	59.3	80	53.1	0	1	270	0.00	29.977 
05:00	59.3	59.3	59.3	79	52.8	0	0	---	0.00	29.980 
05:05	59.3	59.3	59.3	79	52.8	0	1	270	0.00	29.980 
05:10	59.2	59.2	59.2	79	52.7	0	1	270	0.00	29.980 
05:15	59.2	59.2	59.2	79	52.7	0	0	---	0.00	29.983 
05:20	59.0	59.0	59.0	78	52.1	0	1	270	0.00	29.983 
05:25	58.9	58.9	58.9	78	52.0	0	1	270	0.00	29.983 
05:30	58.9	58.9	58.9	79	52.4	0	1	270	0.00	29.990 
05:35	58.7	58.7	58.7	79	52.2	0	4	315	0.00	29.990 
05:40	58.7	58.7	58.7	78	51.9	0	1	315	0.00	29.990 
05:45	58.6	58.6	58.6	78	51.8	0	1	315	0.00	29.992 
05:50	58.4	58.4	58.4	78	51.6	0	1	315	0.00	29.992 
05:55	58.4	58.4	58.4	79	51.9	0	1	315	0.00	29.992 
06:00	58.3	58.3	58.3	79	51.8	0	1	315	0.00	29.994 
06:05	58.1	58.1	58.1	79	51.6	0	0	---	0.00	29.994 
06:10	58.0	58.0	58.0	79	51.5	0	0	---	0.00	29.994 
06:15	57.6	57.6	57.6	80	51.5	0	0	---	0.00	30.003 
06:20	57.3	57.3	57.3	80	51.2	0	1	315	0.00	30.003 
06:25	57.2	57.2	57.2	81	51.4	0	1	315	0.00	30.003 
06:30	56.9	56.9	56.9	81	51.1	0	1	315	0.00	30.010 
06:35	56.7	56.7	56.7	81	50.9	0	0	---	0.00	30.010 
06:40	56.6	56.6	56.6	81	50.8	0	0	---	0.00	30.010 
06:45	56.3	56.3	56.3	82	50.9	0	0	---	0.00	30.013 
06:50	56.2	56.2	56.2	82	50.8	0	0	---	0.00	30.013 
06:55	56.0	56.0	56.0	82	50.6	0	0	---	0.00	30.013 
07:00	55.9	55.9	55.9	83	50.8	0	0	---	0.00	30.021 
07:05	55.7	55.7	55.7	83	50.6	0	0	---	0.00	30.021 
07:10	55.6	55.6	55.6	83	50.5	0	0	---	0.00	30.021 
07:15	55.4	55.4	55.4	84	50.6	0	0	---	0.00	30.026 
07:20	55.4	55.4	55.4	84	50.6	0	0	---	0.00	30.026 
07:25	55.3	55.3	55.3	84	50.5	0	0	---	0.00	30.026 
07:30	55.3	55.3	55.3	84	50.5	0	0	---	0.00	30.027 
07:35	55.4	55.4	55.4	84	50.6	0	0	---	0.00	30.027 
07:40	55.6	55.6	55.6	84	50.8	0	1	315	0.00	30.027 
07:45	55.7	55.7	55.7	83	50.6	0	1	315	0.00	30.031 
07:50	56.0	56.0	56.0	82	50.6	0	0	---	0.00	30.031 
07:55	56.3	56.3	56.3	81	50.5	0	1	315	0.00	30.031 
08:00	56.6	56.6	56.6	81	50.8	0	1	315	0.00	30.037 
08:05	56.9	56.9	56.9	80	50.8	0	1	315	0.00	30.037 
08:10	57.3	57.3	57.3	79	50.8	0	1	315	0.00	30.037 
08:15	57.8	57.8	57.8	77	50.6	0	2	315	0.00	30.041 
08:20	58.4	58.4	58.4	75	50.5	0	2	292	0.00	30.041 
08:25	59.0	59.0	59.0	73	50.4	1	3	22	0.00	30.041 
08:30	59.5	59.5	59.5	73	50.8	1	3	112	0.00	30.042 
08:35	59.8	59.8	59.8	72	50.8	0	4	112	0.00	30.042 
08:40	59.8	59.8	59.8	72	50.8	0	1	112	0.00	30.042 
08:45	60.1	60.1	60.1	72	51.0	0	3	112	0.00	30.041 
08:50	60.5	60.5	60.5	70	50.7	1	2	112	0.00	30.041 
08:55	60.7	60.7	60.7	69	50.5	1	3	112	0.00	30.041 
09:00	60.9	60.9	60.9	69	50.7	0	3	112	0.00	30.042 
09:05	60.9	60.9	60.9	69	50.7	0	3	112	0.00	30.042 
09:10	61.0	61.0	61.0	71	51.5	0	2	112	0.00	30.042 
09:15	61.5	61.5	61.5	70	51.6	0	3	112	0.00	30.047 
09:20	61.6	61.6	61.6	67	50.5	0	2	112	0.00	30.047 
09:25	61.3	61.3	61.3	67	50.2	1	3	112	0.00	30.047 
09:30	61.0	61.0	61.0	66	49.6	1	3	22	0.00	30.048 
09:35	61.3	61.3	61.3	65	49.4	0	3	338	0.00	30.048 
09:40	61.8	61.8	61.8	64	49.5	0	3	22	0.00	30.048 
09:45	62.0	62.0	62.0	62	48.8	1	2	22	0.00	30.050 
09:50	62.1	62.1	62.1	63	49.3	0	2	22	0.00	30.050 
09:55	62.6	62.6	62.6	64	50.2	1	4	22	0.00	30.050 
10:00	62.9	62.9	62.9	65	50.9	1	4	22	0.00	30.045 
10:05	63.4	63.4	63.4	62	50.1	1	3	90	0.00	30.045 
10:10	63.5	63.5	63.5	62	50.2	0	3	90	0.00	30.045 
10:15	63.5	63.5	63.5	64	51.1	0	3	90	0.00	30.052 
10:20	64.0	64.0	64.0	59	49.4	1	3	90	0.00	30.052 
10:25	64.3	64.3	64.3	62	51.0	1	4	90	0.00	30.052 
10:30	64.0	64.0	64.0	58	48.9	1	3	315	0.00	30.050 
10:35	63.7	63.7	63.7	61	50.0	1	4	315	0.00	30.050 
10:40	64.2	64.2	64.2	60	50.0	2	4	90	0.00	30.050 
10:45	64.5	64.5	64.5	59	49.8	1	4	112	0.00	30.047 
10:50	64.8	64.8	64.8	58	49.7	1	3	112	0.00	30.047 
10:55	65.0	65.0	65.0	58	49.9	1	2	158	0.00	30.047 
11:00	65.3	65.3	65.3	60	51.1	1	4	90	0.00	30.051 
11:05	65.6	65.6	65.6	58	50.4	1	3	45	0.00	30.051 
11:10	65.5	65.5	65.5	59	50.8	1	3	45	0.00	30.051 
11:15	65.6	65.6	65.6	58	50.4	0	2	45	0.00	30.050 
11:20	66.3	66.3	66.3	59	51.5	0	2	45	0.00	30.050 
11:25	66.9	66.9	66.9	58	51.6	0	2	45	0.00	30.050 
11:30	67.4	67.4	67.4	58	52.1	1	4	45	0.00	30.052 
11:35	67.8	67.8	67.8	51	49.0	2	5	135	0.00	30.052 
11:40	67.6	67.6	67.6	53	49.9	1	5	68	0.00	30.052 
11:45	67.9	67.9	67.9	53	50.1	0	4	90	0.00	30.050 
11:50	67.4	67.4	67.4	53	49.7	1	5	338	0.00	30.050 
11:55	67.8	67.8	67.8	59	52.9	1	3	45	0.00	30.050 
12:00	68.4	68.4	68.4	55	51.6	0	3	90	0.00	30.043 
12:05	69.1	69.1	69.1	55	52.2	0	2	90	0.00	30.043 
12:10	69.1	69.1	69.1	50	49.7	1	3	90	0.00	30.043 
12:15	69.4	69.4	69.4	52	51.0	1	4	90	0.00	30.042 
12:20	68.8	68.8	68.8	52	50.4	1	4	90	0.00	30.042 
12:25	68.6	68.6	68.6	51	49.7	1	5	68	0.00	30.042 
12:30	68.4	68.4	68.4	53	50.6	1	4	0	0.00	30.042 
12:35	68.9	68.9	68.9	52	50.5	0	2	0	0.00	30.042 
12:40	69.3	69.3	69.3	54	51.9	0	3	0	0.00	30.042 
12:45	69.4	69.4	69.4	51	50.5	2	4	292	0.00	30.038 
12:50	69.3	69.3	69.3	52	50.9	1	4	315	0.00	30.038 
12:55	69.3	69.3	69.3	52	50.9	1	3	315	0.00	30.038 
13:00	69.1	69.1	69.1	50	49.7	1	4	315	0.00	30.036 
13:05	69.6	69.6	69.6	50	50.1	1	4	315	0.00	30.036 
13:10	69.6	69.6	69.6	50	50.1	1	5	292	0.00	30.036 
13:15	69.1	69.1	69.1	50	49.7	1	5	292	0.00	30.034 
13:20	69.1	69.1	69.1	53	51.2	1	4	112	0.00	30.034 
13:25	69.3	69.3	69.3	54	51.9	1	4	338	0.00	30.034 
13:30	69.4	69.4	69.4	53	51.5	1	4	292	0.00	30.028 
13:35	69.9	69.9	69.9	53	52.0	1	4	338	0.00	30.028 
13:40	70.6	70.6	70.6	52	52.1	1	4	338	0.00	30.028 
13:45	70.9	70.9	70.9	50	51.3	1	3	338	0.00	30.023 
13:50	70.9	70.9	70.9	50	51.3	2	6	315	0.00	30.023 
13:55	70.8	70.8	70.8	50	51.2	2	5	315	0.00	30.023 
14:00	70.6	70.6	70.6	47	49.4	2	6	292	0.00	30.016 
14:05	70.9	70.9	70.9	48	50.2	2	4	315	0.00	30.016 
14:10	70.9	70.9	70.9	49	50.8	2	5	292	0.00	30.016 
14:15	70.8	70.8	70.8	49	50.7	2	7	338	0.00	30.014 
14:20	70.9	70.9	70.9	50	51.3	2	6	338	0.00	30.014 
14:25	71.1	71.1	71.1	49	51.0	2	4	315	0.00	30.014 
14:30	71.1	71.1	71.1	49	51.0	2	7	338	0.00	30.011 
14:35	71.3	71.3	71.3	49	51.1	2	6	315	0.00	30.011 
14:40	71.5	71.5	71.5	48	50.8	2	5	315	0.00	30.011 
14:45	71.6	71.6	71.6	49	51.4	2	6	338	0.00	30.008 
14:50	71.5	71.5	71.5	47	50.2	2	5	315	0.00	30.008 
14:55	71.1	71.1	71.1	47	49.8	2	6	315	0.00	30.008 
15:00	71.1	71.1	71.1	49	51.0	2	10	338	0.00	30.010 
15:05	71.5	71.5	71.5	48	50.8	2	5	292	0.00	30.010 
15:10	71.6	71.6	71.6	47	50.3	2	6	270	0.00	30.010 
15:15	71.6	71.6	71.6	46	49.7	2	4	315	0.00	30.004 
15:20	72.0	72.0	72.0	47	50.7	2	5	315	0.00	30.004 
15:25	72.3	72.3	72.3	46	50.3	2	6	315	0.00	30.004 
15:30	72.5	72.5	72.5	44	49.3	3	6	270	0.00	29.999 
15:35	72.7	72.7	72.7	44	49.5	2	6	270	0.00	29.999 
15:40	72.8	72.8	72.8	46	50.8	2	4	315	0.00	29.999 
15:45	72.8	72.8	72.8	44	49.6	1	4	315	0.00	29.999 
15:50	72.7	72.7	72.7	43	48.9	2	5	270	0.00	29.999 
15:55	72.8	72.8	72.8	43	49.0	2	6	315	0.00	29.999 
16:00	72.8	72.8	72.8	43	49.0	2	6	292	0.00	30.000 
16:05	72.8	72.8	72.8	43	49.0	1	5	292	0.00	30.000 
16:10	72.8	72.8	72.8	39	46.4	2	5	315	0.00	30.000 
16:15	72.7	72.7	72.7	42	48.3	1	5	292	0.00	29.998 
16:20	72.5	72.5	72.5	40	46.8	2	5	315	0.00	29.998 
16:25	72.8	72.8	72.8	42	48.4	1	5	315	0.00	29.998 
16:30	72.7	72.7	72.7	41	47.6	2	5	292	0.00	29.995 
16:35	72.8	72.8	72.8	42	48.4	2	4	292	0.00	29.995 
16:40	72.7	72.7	72.7	42	48.3	2	5	315	0.00	29.995 
16:45	72.7	72.7	72.7	42	48.3	2	5	270	0.00	29.992 
16:50	72.8	72.8	72.8	40	47.1	2	5	270	0.00	29.992 
16:55	72.8	72.8	72.8	45	50.2	1	4	270	0.00	29.992 
17:00	73.0	73.0	73.0	41	47.9	1	3	292	0.00	29.988 
17:05	73.2	73.2	73.2	38	46.1	1	4	292	0.00	29.988 
17:10	73.2	73.2	73.2	31	40.7	2	5	315	0.00	29.988 
17:15	73.0	73.0	73.0	31	40.6	2	5	315	0.00	29.983 
17:20	73.2	73.2	73.2	34	43.1	1	4	292	0.00	29.983 
17:25	73.2	73.2	73.2	33	42.4	2	7	292	0.00	29.983 
17:30	73.0	73.0	73.0	35	43.7	1	4	315	0.00	29.982 
17:35	73.2	73.2	73.2	35	43.9	1	4	315	0.00	29.982 
17:40	73.2	73.2	73.2	28	38.1	3	9	292	0.00	29.982 
17:45	73.0	73.0	73.0	33	42.2	2	6	292	0.00	29.983 
17:50	72.8	72.8	72.8	30	39.5	2	6	292	0.00	29.983 
17:55	72.5	72.5	72.5	30	39.3	3	7	292	0.00	29.983 
18:00	72.5	72.5	72.5	32	41.0	1	4	292	0.00	29.982 
18:05	72.7	72.7	72.7	31	40.3	2	6	292	0.00	29.982 
18:10	72.5	72.5	72.5	31	40.1	2	6	292	0.00	29.982 
18:15	72.3	72.3	72.3	31	40.0	2	4	292	0.00	29.984 
18:20	72.1	72.1	72.1	31	39.8	1	5	292	0.00	29.984 
18:25	71.8	71.8	71.8	32	40.3	1	5	338	0.00	29.984 
18:30	71.8	71.8	71.8	34	41.9	1	3	315	0.00	29.983 
18:35	71.6	71.6	71.6	34	41.7	1	5	315	0.00	29.983 
18:40	71.3	71.3	71.3	33	40.7	1	4	315	0.00	29.983 
18:45	71.3	71.3	71.3	34	41.5	1	5	315	0.00	29.984 
18:50	71.1	71.1	71.1	35	42.0	1	3	315	0.00	29.984 
18:55	70.9	70.9	70.9	35	41.9	1	4	315	0.00	29.984 
19:00	70.9	70.9	70.9	35	41.9	1	5	315	0.00	29.982 
19:05	70.9	70.9	70.9	36	42.6	1	4	270	0.00	29.982 
19:10	70.8	70.8	70.8	36	42.5	1	4	315	0.00	29.982 
19:15	70.4	70.4	70.4	34	40.7	2	4	315	0.00	29.979 
19:20	70.4	70.4	70.4	34	40.7	1	4	315	0.00	29.979 
19:25	70.3	70.3	70.3	36	42.1	1	3	315	0.00	29.979 
19:30	70.1	70.1	70.1	35	41.2	1	4	270	0.00	29.981 
19:35	69.9	69.9	69.9	36	41.7	1	3	270	0.00	29.981 
19:40	69.9	69.9	69.9	35	41.0	1	3	270	0.00	29.981 
19:45	69.6	69.6	69.6	35	40.7	1	3	270	0.00	29.982 
19:50	69.4	69.4	69.4	37	42.0	0	1	270	0.00	29.982 
19:55	69.3	69.3	69.3	37	41.9	1	3	270	0.00	29.982 
20:00	68.9	68.9	68.9	39	42.9	0	1	315	0.00	29.983 
20:05	68.6	68.6	68.6	40	43.3	0	1	315	0.00	29.983 
20:10	68.1	68.1	68.1	41	43.5	0	1	315	0.00	29.983 
20:15	67.8	67.8	67.8	42	43.9	0	1	315	0.00	29.981 
20:20	67.6	67.6	67.6	43	44.3	0	1	315	0.00	29.981 
20:25	67.1	67.1	67.1	44	44.5	1	4	315	0.00	29.981 
20:30	66.8	66.8	66.8	45	44.8	1	4	315	0.00	29.984 
20:35	66.4	66.4	66.4	46	45.0	0	1	315	0.00	29.984 
20:40	66.0	66.0	66.0	47	45.2	0	2	315	0.00	29.984 
20:45	65.6	65.6	65.6	47	44.8	0	3	315	0.00	29.994 
20:50	65.3	65.3	65.3	48	45.1	0	1	315	0.00	29.994 
20:55	65.0	65.0	65.0	48	44.8	1	4	315	0.00	29.994 
21:00	64.7	64.7	64.7	48	44.6	0	3	315	0.00	29.998 
21:05	64.3	64.3	64.3	49	44.7	0	1	315	0.00	29.998 
21:10	64.0	64.0	64.0	49	44.5	0	1	315	0.00	29.998 
21:15	63.7	63.7	63.7	50	44.7	0	1	315	0.00	29.997 
21:20	63.2	63.2	63.2	50	44.2	0	1	315	0.00	29.997 
21:25	62.9	62.9	62.9	51	44.5	0	1	315	0.00	29.997 
21:30	62.6	62.6	62.6	52	44.7	0	1	315	0.00	29.999 
21:35	62.3	62.3	62.3	53	44.9	0	1	315	0.00	29.999 
21:40	62.0	62.0	62.0	53	44.7	0	1	315	0.00	29.999 
21:45	61.8	61.8	61.8	54	45.0	0	1	315	0.00	30.003 
21:50	61.5	61.5	61.5	55	45.2	0	1	315	0.00	30.003 
21:55	61.3	61.3	61.3	55	45.0	0	1	315	0.00	30.003 
22:00	61.2	61.2	61.2	56	45.4	0	1	315	0.00	30.011 
22:05	60.9	60.9	60.9	57	45.6	0	2	315	0.00	30.011 
22:10	60.7	60.7	60.7	57	45.4	0	1	315	0.00	30.011 
22:15	60.4	60.4	60.4	58	45.6	0	3	315	0.00	30.010 
22:20	60.1	60.1	60.1	59	45.7	0	1	315	0.00	30.010 
22:25	59.8	59.8	59.8	60	45.9	0	1	315	0.00	30.010 
22:30	59.5	59.5	59.5	60	45.6	0	1	315	0.00	30.016 
22:35	59.3	59.3	59.3	61	45.8	0	1	315	0.00	30.016 
22:40	59.2	59.2	59.2	61	45.8	0	1	315	0.00	30.016 
22:45	59.0	59.0	59.0	61	45.6	0	1	315	0.00	30.020 
22:50	58.9	58.9	58.9	62	45.9	0	1	315	0.00	30.020 
22:55	58.7	58.7	58.7	62	45.7	0	1	315	0.00	30.020 
23:00	58.6	58.6	58.6	63	46.0	0	1	315	0.00	30.025 
23:05	58.3	58.3	58.3	63	45.8	0	1	315	0.00	30.025 
23:10	58.1	58.1	58.1	64	46.0	0	1	315	0.00	30.025 
23:15	57.8	57.8	57.8	65	46.1	0	1	315	0.00	30.024 
23:20	57.6	57.6	57.6	65	45.9	0	1	315	0.00	30.024 
23:25	57.5	57.5	57.5	65	45.8	0	1	315	0.00	30.024 
23:30	57.3	57.3	57.3	66	46.0	0	1	315	0.00	30.027 
23:35	57.0	57.0	57.0	66	45.8	0	1	315	0.00	30.027 
23:40	56.9	56.9	56.9	66	45.7	0	1	315	0.00	30.027 
23:45	56.9	56.9	56.9	66	45.7	0	1	315	0.00	30.028 
23:50	56.7	56.7	56.7	67	45.9	0	1	315	0.00	30.028 
23:55	56.6	56.6	56.6	67	45.8	0	1	315	0.00	30.028 

CoCoRaHS
IN-AL-39
A2 Web Hosting
Creative Commons License
GoDaddy
search engine by freefind advanced

loaded 2018-11-20 06:19:01 • last modified 2010-11-18 10:43:29
Privacy PolicyDisclaimer
• wx.awcolley.com is powered by PmWiki v.2002016 •
• all content (unless otherwise noted) © 2018 A W Colley